Canefield Airport

Fair with slight haze
27oC (81oF)

Fair with slight haze


Winds: Westerly @ 01kt / 02km/h

Humidity: 75%

Barometric Pressure: 1013 mb

Accumulated Rainfall for December: 5.8 mm

Updated: 18:00 local time (22:00 UTC)

Douglas-Charles Airport

Cloudy
27oC (81oF)

Cloudy


Winds: East south easterly @ 08kts / 15km/h gusting to 19kts / 35km/h

Humidity: 78%

Barometric Pressure: 1017 mb

Accumulated Rainfall for December: 42.6 mm

Updated: 22:00 local time (02:00 UTC)

Satellite Imagery

Satellite Imagery
Click image for larger view. (Source: National Hurricane Center).

Aviation Routine Report (METAR)

Douglas-Charles: METAR TDPD 060200Z 12008G19KT 9999 BKN018 27/23 Q1017=
Canefield: METAR TDCF 052200Z 27001KT 9999 FEW017 27/23 Q1013=